Terminal Aerodrome Forecast
Issued by NWS

Home | Current Version | Previous Version | Text Only | Print | Product List | Glossary On
Versions: 1 2 3 4 5 6 7 8 9 10 11 12 13 14 15 16 17 18 19 20 21 22 23 24 25 26 27 28 29 30 31 32 33 34
904
FTUS41 KBTV 171726 AAA
TAFPBG
TAF AMD
KPBG 171726Z 1717/1818 13005KT P6SM FEW200
     FM180600 15005KT P6SM VCSH OVC100
     FM181100 16008KT P6SM VCSH OVC030
     FM181200 15008KT 4SM -SHRA BR OVC018=

USA.gov is the U.S. government's official web portal to all federal, state and local government web resources and services.